Terminal Aerodrome Forecast
Issued by NWS

Home | Current Version | Previous Version | Text Only | Print | Product List | Glossary On
Versions: 1 2 3 4 5 6 7 8 9 10 11 12 13 14 15 16 17 18
000
FTUS43 KICT 230522
TAFRSL
TAF
KRSL 230522Z 2306/2406 17019G27KT P6SM VCTS SCT020CB
      TEMPO 2306/2307 BKN020CB
     FM230700 17016G23KT P6SM VCTS OVC015CB
     FM231500 16014G20KT P6SM BKN030
     FM232200 14012KT P6SM VCTS BKN050CB
     FM240300 12011KT P6SM OVC025=

USA.gov is the U.S. government's official web portal to all federal, state and local government web resources and services.